createdAt,value
2022-11-19T00:00:47.749Z,5.30
2022-11-19T00:05:50.404Z,4.00
2022-11-19T00:10:52.257Z,3.90
2022-11-19T00:15:53.943Z,4.47
2022-11-19T00:20:56.549Z,5.63
2022-11-19T00:26:04.228Z,4.50
2022-11-19T00:31:12.073Z,3.50
2022-11-19T00:36:15.339Z,3.93
2022-11-19T00:41:16.987Z,3.83
2022-11-19T00:46:24.868Z,3.73
2022-11-19T00:51:29.200Z,4.73
2022-11-19T00:56:30.860Z,3.80
2022-11-19T01:01:32.512Z,5.70
2022-11-19T01:06:34.217Z,4.07
2022-11-19T01:11:37.051Z,5.30
2022-11-19T01:16:40.291Z,4.37
2022-11-19T01:21:41.875Z,5.27
2022-11-19T01:26:46.302Z,5.20
2022-11-19T01:31:47.896Z,6.60
2022-11-19T01:36:49.593Z,8.73
2022-11-19T01:41:51.161Z,7.43
2022-11-19T01:46:52.771Z,8.93
2022-11-19T01:52:01.197Z,7.80
2022-11-19T01:57:06.815Z,8.47
2022-11-19T02:02:08.687Z,7.50
2022-11-19T02:07:11.990Z,6.60
2022-11-19T02:12:28.975Z,6.57
2022-11-19T02:17:45.802Z,6.80
2022-11-19T02:23:08.146Z,7.07
2022-11-19T02:28:31.943Z,6.17
2022-11-19T02:33:43.083Z,8.53
2022-11-19T02:38:56.278Z,6.03
2022-11-19T02:44:21.490Z,5.97
2022-11-19T02:49:26.394Z,6.10
2022-11-19T02:54:28.281Z,5.80
2022-11-19T02:59:54.806Z,5.20
2022-11-19T03:04:56.841Z,5.93
2022-11-19T03:10:00.866Z,5.20
2022-11-19T03:15:43.735Z,3.07
2022-11-19T03:20:50.507Z,2.67
2022-11-19T03:26:01.696Z,1.33
2022-11-19T03:31:04.570Z,1.20
2022-11-19T03:36:10.639Z,1.30
2022-11-19T03:41:15.074Z,1.30
2022-11-19T03:46:18.455Z,1.20
2022-11-19T03:51:20.833Z,1.40
2022-11-19T03:56:24.618Z,1.30
2022-11-19T04:01:26.440Z,2.13
2022-11-19T04:06:28.090Z,1.83
2022-11-19T04:11:29.756Z,1.87
2022-11-19T04:16:31.368Z,2.07
2022-11-19T04:21:33.011Z,2.20
2022-11-19T04:26:34.644Z,2.60
2022-11-19T04:31:36.205Z,4.07
2022-11-19T04:36:40.205Z,3.20
2022-11-19T04:41:41.954Z,2.93
2022-11-19T04:46:43.543Z,3.20
2022-11-19T04:51:45.114Z,3.03
2022-11-19T04:56:46.685Z,3.00
2022-11-19T05:01:49.592Z,4.80
2022-11-19T05:06:51.360Z,3.10
2022-11-19T05:11:52.953Z,3.30
2022-11-19T05:16:54.704Z,3.90
2022-11-19T05:21:56.528Z,3.67
2022-11-19T05:26:58.303Z,4.70
2022-11-19T05:32:00.087Z,4.80
2022-11-19T05:37:01.786Z,4.20
2022-11-19T05:42:03.522Z,4.60
2022-11-19T05:47:05.103Z,5.40
2022-11-19T05:52:06.748Z,6.03
2022-11-19T05:57:08.260Z,6.63
2022-11-19T06:02:09.790Z,6.60
2022-11-19T06:07:11.359Z,7.67
2022-11-19T06:12:12.916Z,9.00
2022-11-19T06:17:14.521Z,10.30
2022-11-19T06:22:16.067Z,9.43
2022-11-19T06:27:19.248Z,9.73
2022-11-19T06:32:20.721Z,10.97
2022-11-19T06:37:22.399Z,11.30
2022-11-19T06:42:36.100Z,10.23
2022-11-19T06:47:38.277Z,9.43
2022-11-19T06:52:39.808Z,11.73
2022-11-19T06:57:41.361Z,10.93
2022-11-19T07:02:43.095Z,13.40
2022-11-19T07:07:44.742Z,10.33
2022-11-19T07:12:46.309Z,11.10
2022-11-19T07:17:48.830Z,24.77
2022-11-19T07:22:53.714Z,12.27
2022-11-19T07:27:59.742Z,11.57
2022-11-19T07:33:01.551Z,13.33
2022-11-19T07:38:03.098Z,12.97
2022-11-19T07:43:04.725Z,12.20
2022-11-19T07:48:08.880Z,12.10
2022-11-19T07:53:10.443Z,11.53
2022-11-19T07:58:12.039Z,14.03
2022-11-19T08:03:13.721Z,15.43
2022-11-19T08:08:15.264Z,12.37
2022-11-19T08:13:17.061Z,13.50
2022-11-19T08:18:18.799Z,15.00
2022-11-19T08:23:20.583Z,13.73
2022-11-19T08:28:22.144Z,13.23
2022-11-19T08:33:23.926Z,12.90
2022-11-19T08:38:25.509Z,15.13
2022-11-19T08:43:27.470Z,13.57
2022-11-19T08:48:29.019Z,13.00
2022-11-19T08:53:30.725Z,13.37
2022-11-19T08:58:32.749Z,13.77
2022-11-19T09:03:34.284Z,14.50
2022-11-19T09:08:36.372Z,12.30
2022-11-19T09:13:38.662Z,12.53
2022-11-19T09:18:42.094Z,13.00
2022-11-19T09:23:43.924Z,12.23
2022-11-19T09:28:45.879Z,12.40
2022-11-19T09:33:52.306Z,11.20
2022-11-19T09:38:57.801Z,10.67
2022-11-19T09:44:08.317Z,9.97
2022-11-19T09:49:13.970Z,11.27
2022-11-19T09:54:17.846Z,11.90
2022-11-19T09:59:34.515Z,10.13
2022-11-19T10:04:36.713Z,11.30
2022-11-19T10:10:12.113Z,11.93
2022-11-19T10:15:37.867Z,12.93
2022-11-19T10:20:48.969Z,10.10
2022-11-19T10:25:52.968Z,10.73
2022-11-19T10:31:03.433Z,11.43
2022-11-19T10:36:08.340Z,10.97
2022-11-19T10:41:22.709Z,10.93
2022-11-19T10:46:26.022Z,11.17
2022-11-19T10:51:29.959Z,9.60
2022-11-19T10:56:42.229Z,9.73
2022-11-19T11:01:46.576Z,9.93
2022-11-19T11:07:03.067Z,8.87
2022-11-19T11:12:31.391Z,10.23
2022-11-19T11:17:35.155Z,10.37
2022-11-19T11:22:36.907Z,9.63
2022-11-19T11:27:38.515Z,9.00
2022-11-19T11:32:41.181Z,8.93
2022-11-19T11:37:42.892Z,10.23
2022-11-19T11:42:46.107Z,10.27
2022-11-19T11:47:47.715Z,9.33
2022-11-19T11:52:54.171Z,10.53
2022-11-19T11:57:56.967Z,7.70
2022-11-19T12:03:09.490Z,8.37
2022-11-19T12:08:17.159Z,9.30
2022-11-19T12:13:39.837Z,8.27
2022-11-19T12:18:50.145Z,8.70
2022-11-19T12:24:10.018Z,9.30
2022-11-19T12:29:49.455Z,10.23
2022-11-19T12:35:01.203Z,8.43
2022-11-19T12:40:11.906Z,7.97
2022-11-19T12:45:36.149Z,8.30
2022-11-19T12:50:58.115Z,8.67
2022-11-19T12:56:05.779Z,8.20
2022-11-19T13:01:15.674Z,10.43
2022-11-19T13:06:25.777Z,8.97
2022-11-19T13:11:55.309Z,7.83
2022-11-19T13:16:57.269Z,8.30
2022-11-19T13:22:04.482Z,9.70
2022-11-19T13:27:11.263Z,7.77
2022-11-19T13:32:27.267Z,8.33
2022-11-19T13:37:44.254Z,8.73
2022-11-19T13:43:30.399Z,9.30
2022-11-19T13:48:31.404Z,8.60
2022-11-19T13:53:42.308Z,9.90
2022-11-19T13:58:51.734Z,9.17
2022-11-19T14:03:59.592Z,8.50
2022-11-19T14:09:36.559Z,7.47
2022-11-19T14:15:38.485Z,9.87
2022-11-19T14:21:01.384Z,9.80
2022-11-19T14:26:21.080Z,8.73
2022-11-19T14:31:22.630Z,8.27
2022-11-19T14:36:42.587Z,8.43
2022-11-19T14:41:44.685Z,9.47
2022-11-19T14:46:48.149Z,9.50
2022-11-19T14:51:56.799Z,8.53
2022-11-19T14:57:08.050Z,8.93
2022-11-19T15:02:15.565Z,9.33
2022-11-19T15:07:49.014Z,10.33
2022-11-19T15:13:20.244Z,11.73
2022-11-19T15:18:39.912Z,10.20
2022-11-19T15:23:49.972Z,9.67
2022-11-19T15:28:57.379Z,9.63
2022-11-19T15:34:56.140Z,9.00
2022-11-19T15:39:59.913Z,10.67
2022-11-19T15:45:10.895Z,8.77
2022-11-19T15:50:19.371Z,9.60
2022-11-19T15:55:26.793Z,9.43
2022-11-19T16:00:28.861Z,9.87
2022-11-19T16:05:32.598Z,9.87
2022-11-19T16:10:35.677Z,8.70
2022-11-19T16:16:03.398Z,9.43
2022-11-19T16:21:05.070Z,8.23
2022-11-19T16:26:06.537Z,9.70
2022-11-19T16:31:08.084Z,9.47
2022-11-19T16:36:14.119Z,8.60
2022-11-19T16:41:36.699Z,9.53
2022-11-19T16:46:38.498Z,9.40
2022-11-19T16:51:53.368Z,9.30
2022-11-19T16:56:55.160Z,9.60
2022-11-19T17:01:59.629Z,8.10
2022-11-19T17:07:01.647Z,9.20
2022-11-19T17:12:18.895Z,9.53
2022-11-19T17:17:41.542Z,10.93
2022-11-19T17:22:43.282Z,9.30
2022-11-19T17:27:50.719Z,8.70
2022-11-19T17:32:54.477Z,9.73
2022-11-19T17:37:57.485Z,9.37
2022-11-19T17:43:18.537Z,11.17
2022-11-19T17:48:24.869Z,10.03
2022-11-19T17:53:26.579Z,9.60
2022-11-19T17:58:28.107Z,10.93
2022-11-19T18:03:29.809Z,9.30
2022-11-19T18:08:31.368Z,10.40
2022-11-19T18:13:35.298Z,9.73
2022-11-19T18:18:37.173Z,10.57
2022-11-19T18:23:42.511Z,10.90
2022-11-19T18:28:48.638Z,9.93
2022-11-19T18:33:50.800Z,8.70
2022-11-19T18:38:53.075Z,11.25
2022-11-19T18:44:12.997Z,10.17
2022-11-19T18:49:14.724Z,10.50
2022-11-19T18:54:16.357Z,9.37
2022-11-19T18:59:18.192Z,8.67
2022-11-19T19:04:20.025Z,13.63
2022-11-19T19:09:22.587Z,11.33
2022-11-19T19:14:24.439Z,10.23
2022-11-19T19:19:26.649Z,11.80
2022-11-19T19:24:28.534Z,10.40
2022-11-19T19:29:30.187Z,12.60
2022-11-19T19:34:31.805Z,12.00
2022-11-19T19:39:33.401Z,12.87
2022-11-19T19:44:35.034Z,10.77
2022-11-19T19:49:39.002Z,11.00
2022-11-19T19:54:44.171Z,11.77
2022-11-19T19:59:45.839Z,12.40
2022-11-19T20:04:47.406Z,10.07
2022-11-19T20:09:48.962Z,10.40
2022-11-19T20:14:50.491Z,12.20
2022-11-19T20:19:52.035Z,12.17
2022-11-19T20:24:53.747Z,13.40
2022-11-19T20:29:55.435Z,14.00
2022-11-19T20:34:57.017Z,12.00
2022-11-19T20:39:58.681Z,13.23
2022-11-19T20:45:00.368Z,12.97
2022-11-19T20:50:01.923Z,13.73
2022-11-19T20:55:06.831Z,13.43
2022-11-19T21:00:09.324Z,14.47
2022-11-19T21:05:10.978Z,14.53
2022-11-19T21:10:12.579Z,14.37
2022-11-19T21:15:14.709Z,16.50
2022-11-19T21:20:17.190Z,11.57
2022-11-19T21:25:19.143Z,12.30
2022-11-19T21:30:20.886Z,12.87
2022-11-19T21:35:22.435Z,11.87
2022-11-19T21:40:24.052Z,11.60
2022-11-19T21:45:25.625Z,12.10
2022-11-19T21:50:27.244Z,12.83
2022-11-19T21:55:28.956Z,12.03
2022-11-19T22:00:31.546Z,11.37
2022-11-19T22:05:33.929Z,11.57
2022-11-19T22:10:35.582Z,13.43
2022-11-19T22:15:37.156Z,10.57
2022-11-19T22:20:38.775Z,12.33
2022-11-19T22:25:40.597Z,13.43
2022-11-19T22:30:42.163Z,13.80
2022-11-19T22:35:43.652Z,13.20
2022-11-19T22:40:45.178Z,13.47
2022-11-19T22:45:46.635Z,11.97
2022-11-19T22:50:48.193Z,11.33
2022-11-19T22:55:49.760Z,10.70
2022-11-19T23:00:51.526Z,13.13
2022-11-19T23:05:54.814Z,12.67
2022-11-19T23:11:00.911Z,12.97
2022-11-19T23:16:11.528Z,11.80
2022-11-19T23:21:16.471Z,11.80
2022-11-19T23:26:20.934Z,11.17
2022-11-19T23:31:31.250Z,14.07
2022-11-19T23:36:35.334Z,12.10
2022-11-19T23:41:36.898Z,11.70
2022-11-19T23:46:38.487Z,9.70
2022-11-19T23:51:40.251Z,10.47
2022-11-19T23:56:41.857Z,11.33
